Time;durP1;ratioP1;P1;durP2;ratioP2;P2;SDS_P1;SDS_P2;PMS_P1;PMS_P2;Temp;Humidity;BMP_temperature;BMP_pressure;BME280_temperature;BME280_humidity;BME280_pressure;Samples;Min_cycle;Max_cycle;Signal;HPM_P1;HPM_P2
2020/12/13 00:01:48;;;;;;;67.33;27.23;;;;;;;;;;5055938;28;20250;-74
2020/12/13 00:04:59;;;;;;;74.37;29.07;;;;;;;;;;5053710;28;20268;-74
2020/12/13 00:08:12;;;;;;;71.80;30.87;;;;;;;;;;5055703;28;20215;-75
2020/12/13 00:11:22;;;;;;;81.77;31.00;;;;;;;;;;5047104;28;20202;-75
2020/12/13 00:14:33;;;;;;;74.77;29.47;;;;;;;;;;5047581;28;20327;-75
2020/12/13 00:17:45;;;;;;;66.57;27.67;;;;;;;;;;5059188;28;20211;-75
2020/12/13 00:20:57;;;;;;;68.30;28.47;;;;;;;;;;5049116;28;20223;-74
2020/12/13 00:24:08;;;;;;;73.30;29.20;;;;;;;;;;5056066;28;20234;-75
2020/12/13 00:27:19;;;;;;;63.30;26.17;;;;;;;;;;5062035;28;20723;-75
2020/12/13 00:30:30;;;;;;;69.03;27.23;;;;;;;;;;5052032;28;20207;-74
2020/12/13 00:33:42;;;;;;;69.03;27.37;;;;;;;;;;5048803;28;20696;-75
2020/12/13 00:36:53;;;;;;;70.33;27.70;;;;;;;;;;5055182;28;20221;-75
2020/12/13 00:40:05;;;;;;;70.27;27.40;;;;;;;;;;5053639;28;20219;-76
2020/12/13 00:43:17;;;;;;;73.33;28.57;;;;;;;;;;5058327;28;20285;-75
2020/12/13 00:46:28;;;;;;;66.90;27.03;;;;;;;;;;5079584;28;20206;-76
2020/12/13 00:49:39;;;;;;;69.67;27.27;;;;;;;;;;5077853;28;20238;-74
2020/12/13 00:52:51;;;;;;;68.97;27.03;;;;;;;;;;5064059;28;20698;-74
2020/12/13 00:56:04;;;;;;;71.90;28.23;;;;;;;;;;5048473;28;20215;-74
2020/12/13 00:59:17;;;;;;;67.83;28.00;;;;;;;;;;5051527;28;20632;-75
2020/12/13 01:02:28;;;;;;;72.07;28.50;;;;;;;;;;5052068;28;20357;-74
2020/12/13 01:05:40;;;;;;;74.10;27.77;;;;;;;;;;5052247;28;20221;-75
2020/12/13 01:08:52;;;;;;;75.63;28.63;;;;;;;;;;5051460;28;20219;-75
2020/12/13 01:12:06;;;;;;;69.97;28.60;;;;;;;;;;5052318;28;20257;-74
2020/12/13 01:15:17;;;;;;;69.40;27.83;;;;;;;;;;5051159;28;20242;-75
2020/12/13 01:18:27;;;;;;;77.60;29.57;;;;;;;;;;5052389;28;20230;-75
2020/12/13 01:21:38;;;;;;;75.73;28.47;;;;;;;;;;5053788;28;20218;-74
2020/12/13 01:24:49;;;;;;;74.10;29.33;;;;;;;;;;5053758;28;20226;-74
2020/12/13 01:28:01;;;;;;;71.27;27.73;;;;;;;;;;5053933;28;20330;-74
2020/12/13 01:31:13;;;;;;;74.03;29.10;;;;;;;;;;5055082;28;20254;-75
2020/12/13 01:34:24;;;;;;;77.63;29.63;;;;;;;;;;5048928;28;20718;-75
2020/12/13 01:37:35;;;;;;;74.77;28.63;;;;;;;;;;5047613;28;20229;-74
2020/12/13 01:40:47;;;;;;;72.40;28.20;;;;;;;;;;5046707;28;20231;-74
2020/12/13 01:43:59;;;;;;;72.53;28.80;;;;;;;;;;5049515;28;20772;-74
2020/12/13 01:47:10;;;;;;;76.57;29.17;;;;;;;;;;5044581;28;20257;-74
2020/12/13 01:50:37;;;;;;;69.40;28.73;;;;;;;;;;5044325;28;20191;-75
2020/12/13 01:53:50;;;;;;;75.50;28.97;;;;;;;;;;5045250;28;20678;-74
2020/12/13 01:57:02;;;;;;;71.70;27.33;;;;;;;;;;5050854;28;20349;-75
2020/12/13 02:00:15;;;;;;;75.80;28.73;;;;;;;;;;5049797;28;20621;-74
2020/12/13 02:03:29;;;;;;;71.17;28.73;;;;;;;;;;5049996;28;20268;-75
2020/12/13 02:06:41;;;;;;;77.77;29.50;;;;;;;;;;5049087;28;20215;-75
2020/12/13 02:09:51;;;;;;;74.13;27.33;;;;;;;;;;5050930;28;20203;-76
2020/12/13 02:13:02;;;;;;;78.80;30.47;;;;;;;;;;5056316;28;20356;-75
2020/12/13 02:16:15;;;;;;;72.90;28.17;;;;;;;;;;5064641;28;20203;-74
2020/12/13 02:19:26;;;;;;;70.67;28.60;;;;;;;;;;5058463;28;20234;-74
2020/12/13 02:22:42;;;;;;;72.80;28.77;;;;;;;;;;5052927;28;20238;-75
2020/12/13 02:25:53;;;;;;;77.30;28.20;;;;;;;;;;5050488;28;20342;-74
2020/12/13 02:29:04;;;;;;;80.13;29.27;;;;;;;;;;5054403;28;20214;-75
2020/12/13 02:32:16;;;;;;;79.23;28.97;;;;;;;;;;5059235;28;20206;-75
2020/12/13 02:35:27;;;;;;;78.43;29.83;;;;;;;;;;5078161;28;20178;-75
2020/12/13 02:38:38;;;;;;;81.77;29.20;;;;;;;;;;5077878;28;20191;-75
2020/12/13 02:42:00;;;;;;;80.47;30.10;;;;;;;;;;5062076;28;20223;-75
2020/12/13 02:45:12;;;;;;;75.77;28.50;;;;;;;;;;5049429;28;20301;-74
2020/12/13 02:48:23;;;;;;;76.57;29.20;;;;;;;;;;5053323;28;20219;-74
2020/12/13 02:51:34;;;;;;;81.20;28.87;;;;;;;;;;5055836;28;20579;-74
2020/12/13 02:54:46;;;;;;;78.10;28.97;;;;;;;;;;5049885;28;20238;-75
2020/12/13 02:57:57;;;;;;;78.77;30.40;;;;;;;;;;5054769;28;20215;-75
2020/12/13 03:01:10;;;;;;;79.43;29.43;;;;;;;;;;5058360;28;20300;-75
2020/12/13 03:04:21;;;;;;;82.70;28.97;;;;;;;;;;5051463;28;20268;-74
2020/12/13 03:07:33;;;;;;;80.17;29.43;;;;;;;;;;5047009;28;20265;-74
2020/12/13 03:10:44;;;;;;;86.13;30.77;;;;;;;;;;5047919;28;20199;-75
2020/12/13 03:13:55;;;;;;;83.80;30.40;;;;;;;;;;5049299;28;20721;-75
2020/12/13 03:17:07;;;;;;;81.53;30.07;;;;;;;;;;5054355;28;20196;-75
2020/12/13 03:20:18;;;;;;;82.67;29.90;;;;;;;;;;5051545;28;20218;-74
2020/12/13 03:23:29;;;;;;;83.27;30.13;;;;;;;;;;5060426;28;20587;-74
2020/12/13 03:26:41;;;;;;;94.63;30.40;;;;;;;;;;5046520;28;20212;-74
2020/12/13 03:29:54;;;;;;;85.63;30.30;;;;;;;;;;5039972;28;20702;-74
2020/12/13 03:33:06;;;;;;;81.57;29.47;;;;;;;;;;5053777;28;20404;-75
2020/12/13 03:36:16;;;;;;;85.33;31.23;;;;;;;;;;5056439;28;20232;-75
2020/12/13 03:39:27;;;;;;;82.80;30.13;;;;;;;;;;5048496;28;20678;-75
2020/12/13 03:42:41;;;;;;;82.97;28.87;;;;;;;;;;5051473;28;20311;-75
2020/12/13 03:45:52;;;;;;;82.10;30.07;;;;;;;;;;5047766;28;20238;-74
2020/12/13 03:49:03;;;;;;;85.63;29.87;;;;;;;;;;5049802;28;20577;-75
2020/12/13 03:52:14;;;;;;;83.13;29.20;;;;;;;;;;5053036;28;20250;-75
2020/12/13 03:55:25;;;;;;;86.90;30.10;;;;;;;;;;5048532;28;20207;-75
2020/12/13 03:58:37;;;;;;;79.83;28.67;;;;;;;;;;5053641;28;20214;-75
2020/12/13 04:01:48;;;;;;;85.67;29.73;;;;;;;;;;5054150;28;20271;-74
2020/12/13 04:04:59;;;;;;;81.67;30.27;;;;;;;;;;5050834;28;20753;-74
2020/12/13 04:08:10;;;;;;;90.50;28.13;;;;;;;;;;5057135;28;20261;-74
2020/12/13 04:11:22;;;;;;;80.03;28.47;;;;;;;;;;5051748;28;20591;-76
2020/12/13 04:14:34;;;;;;;82.73;29.17;;;;;;;;;;5049535;28;20262;-74
2020/12/13 04:17:49;;;;;;;80.17;28.33;;;;;;;;;;5052801;28;20207;-74
2020/12/13 04:21:00;;;;;;;84.80;29.33;;;;;;;;;;5053351;28;20219;-74
2020/12/13 04:24:11;;;;;;;79.90;28.57;;;;;;;;;;5063856;28;20717;-75
2020/12/13 04:27:22;;;;;;;74.40;27.33;;;;;;;;;;5056293;28;20355;-74
2020/12/13 04:30:34;;;;;;;76.00;27.50;;;;;;;;;;5053042;28;20195;-74
2020/12/13 04:33:45;;;;;;;67.83;26.00;;;;;;;;;;5042891;28;20635;-74
2020/12/13 04:36:59;;;;;;;71.33;26.30;;;;;;;;;;5047775;28;20329;-75
2020/12/13 04:40:10;;;;;;;75.13;28.10;;;;;;;;;;5054398;28;20686;-75
2020/12/13 04:43:22;;;;;;;75.47;26.57;;;;;;;;;;5048633;28;20223;-75
2020/12/13 04:46:36;;;;;;;74.23;26.53;;;;;;;;;;5048525;28;20203;-75
2020/12/13 04:49:48;;;;;;;76.77;26.37;;;;;;;;;;5054043;28;20211;-76
2020/12/13 04:53:00;;;;;;;69.03;25.73;;;;;;;;;;5052361;28;20274;-75
2020/12/13 04:56:11;;;;;;;69.87;26.73;;;;;;;;;;5053753;28;20218;-75
2020/12/13 04:59:22;;;;;;;68.00;24.73;;;;;;;;;;5050656;28;20299;-75
2020/12/13 05:02:34;;;;;;;66.40;25.10;;;;;;;;;;5052023;28;20222;-75
2020/12/13 05:05:47;;;;;;;65.23;24.37;;;;;;;;;;5051166;28;20674;-75
2020/12/13 05:08:57;;;;;;;65.23;24.83;;;;;;;;;;5048029;28;20215;-75
2020/12/13 05:12:09;;;;;;;61.00;23.23;;;;;;;;;;5057009;28;20617;-74
2020/12/13 05:15:19;;;;;;;66.07;24.73;;;;;;;;;;5053270;28;20711;-75
2020/12/13 05:18:32;;;;;;;63.17;24.23;;;;;;;;;;5052971;28;20676;-76
2020/12/13 05:21:44;;;;;;;64.77;25.40;;;;;;;;;;5047872;28;20288;-75
2020/12/13 05:24:54;;;;;;;66.33;24.73;;;;;;;;;;5043564;28;20218;-75
2020/12/13 05:28:06;;;;;;;64.93;24.23;;;;;;;;;;5044357;28;20214;-75
2020/12/13 05:31:42;;;;;;;67.07;24.07;;;;;;;;;;5048867;28;20686;-75
2020/12/13 05:34:53;;;;;;;63.10;24.03;;;;;;;;;;5048699;28;20357;-74
2020/12/13 05:38:11;;;;;;;64.40;24.87;;;;;;;;;;5042710;28;20207;-75
2020/12/13 05:41:28;;;;;;;60.60;23.50;;;;;;;;;;5052873;28;20734;-75
2020/12/13 05:52:18;;;;;;;63.70;23.60;;;;;;;;;;5048769;28;20245;-74
2020/12/13 05:55:29;;;;;;;62.80;24.30;;;;;;;;;;5053637;28;20275;-73
2020/12/13 05:58:40;;;;;;;66.47;26.03;;;;;;;;;;5055101;28;20260;-74
2020/12/13 06:01:54;;;;;;;63.63;24.27;;;;;;;;;;5057298;28;20612;-75
2020/12/13 06:05:05;;;;;;;64.17;25.40;;;;;;;;;;5057558;28;20705;-75
2020/12/13 06:08:23;;;;;;;65.40;24.93;;;;;;;;;;5083172;28;20206;-75
2020/12/13 06:11:35;;;;;;;72.13;25.97;;;;;;;;;;5078165;28;20234;-74
2020/12/13 06:14:47;;;;;;;61.77;23.70;;;;;;;;;;5085972;28;20227;-75
2020/12/13 06:17:59;;;;;;;69.00;25.20;;;;;;;;;;5051047;28;20215;-75
2020/12/13 06:21:10;;;;;;;63.13;24.67;;;;;;;;;;5058433;28;20631;-74
2020/12/13 06:24:22;;;;;;;58.40;23.23;;;;;;;;;;5052420;28;20227;-75
2020/12/13 06:27:33;;;;;;;71.00;25.00;;;;;;;;;;5055952;28;20207;-74
2020/12/13 06:30:44;;;;;;;61.17;23.30;;;;;;;;;;5052672;28;20238;-74
2020/12/13 06:33:55;;;;;;;59.73;22.77;;;;;;;;;;5050942;28;20595;-74
2020/12/13 06:37:09;;;;;;;61.20;23.50;;;;;;;;;;5053927;28;20848;-75
2020/12/13 06:40:22;;;;;;;62.93;24.57;;;;;;;;;;5050707;28;20215;-76
2020/12/13 06:43:39;;;;;;;64.37;24.33;;;;;;;;;;5050991;28;20262;-75
2020/12/13 06:46:52;;;;;;;62.87;22.50;;;;;;;;;;5054770;28;20358;-75
2020/12/13 06:50:03;;;;;;;61.50;22.67;;;;;;;;;;5055344;28;20291;-75
2020/12/13 06:53:16;;;;;;;59.40;22.37;;;;;;;;;;5053971;28;20285;-75
2020/12/13 06:56:29;;;;;;;58.20;21.17;;;;;;;;;;5059127;28;20210;-75
2020/12/13 06:59:45;;;;;;;59.27;22.67;;;;;;;;;;5054427;28;20629;-75
2020/12/13 07:02:57;;;;;;;57.10;22.67;;;;;;;;;;5054622;28;20610;-75
2020/12/13 07:06:09;;;;;;;57.00;21.70;;;;;;;;;;5048371;28;20210;-74
2020/12/13 07:09:21;;;;;;;55.93;21.43;;;;;;;;;;5048889;28;20694;-74
2020/12/13 07:12:32;;;;;;;59.63;22.30;;;;;;;;;;5054968;28;20206;-74
2020/12/13 07:15:48;;;;;;;57.23;21.90;;;;;;;;;;5050101;28;20699;-75
2020/12/13 07:19:02;;;;;;;51.37;21.40;;;;;;;;;;5051955;28;20206;-75
2020/12/13 07:22:14;;;;;;;55.97;23.17;;;;;;;;;;5042593;28;20223;-74
2020/12/13 07:25:25;;;;;;;57.20;23.23;;;;;;;;;;5053995;28;20219;-75
2020/12/13 07:28:37;;;;;;;59.77;22.63;;;;;;;;;;5055542;28;20199;-74
2020/12/13 07:31:48;;;;;;;58.30;22.77;;;;;;;;;;5054375;28;20218;-74
2020/12/13 07:34:59;;;;;;;57.40;22.23;;;;;;;;;;5047805;28;20204;-74
2020/12/13 07:38:11;;;;;;;57.47;22.70;;;;;;;;;;5054965;28;20766;-75
2020/12/13 07:41:23;;;;;;;56.30;22.30;;;;;;;;;;5058256;28;20231;-74
2020/12/13 07:44:35;;;;;;;61.50;23.10;;;;;;;;;;5058328;28;20226;-75
2020/12/13 07:47:49;;;;;;;60.00;22.50;;;;;;;;;;5053191;28;20298;-75
2020/12/13 07:51:05;;;;;;;61.73;22.13;;;;;;;;;;5053628;28;20210;-75
2020/12/13 07:54:17;;;;;;;54.83;21.93;;;;;;;;;;5076845;28;20557;-74
2020/12/13 07:57:29;;;;;;;58.03;23.27;;;;;;;;;;5077330;28;20195;-75
2020/12/13 08:01:12;;;;;;;56.13;22.03;;;;;;;;;;5074060;28;20242;-75
2020/12/13 08:04:32;;;;;;;56.90;22.33;;;;;;;;;;5049636;28;20281;-74
2020/12/13 08:07:43;;;;;;;52.47;20.67;;;;;;;;;;5058401;28;20287;-75
2020/12/13 08:11:08;;;;;;;55.17;19.70;;;;;;;;;;5049292;28;20225;-75
2020/12/13 08:14:21;;;;;;;58.07;22.07;;;;;;;;;;5053640;28;20231;-74
2020/12/13 08:17:32;;;;;;;61.00;21.77;;;;;;;;;;5054135;28;20190;-75
2020/12/13 08:20:47;;;;;;;50.77;20.50;;;;;;;;;;5057163;28;20679;-74
2020/12/13 08:23:59;;;;;;;49.77;20.07;;;;;;;;;;5053184;28;20223;-74
2020/12/13 08:27:12;;;;;;;54.23;20.67;;;;;;;;;;5055840;28;20290;-74
2020/12/13 08:30:25;;;;;;;57.07;21.57;;;;;;;;;;5064099;28;20264;-74
2020/12/13 08:33:36;;;;;;;51.13;20.20;;;;;;;;;;5049086;28;20247;-74
2020/12/13 08:36:52;;;;;;;50.00;19.60;;;;;;;;;;5050833;28;20295;-75
2020/12/13 08:40:04;;;;;;;51.27;21.00;;;;;;;;;;5053008;28;20333;-74
2020/12/13 08:43:18;;;;;;;53.57;20.93;;;;;;;;;;5045616;28;20247;-75
2020/12/13 08:46:37;;;;;;;55.07;20.90;;;;;;;;;;5048733;28;20219;-74
2020/12/13 08:49:50;;;;;;;54.43;21.47;;;;;;;;;;5054123;28;20590;-74
2020/12/13 08:53:02;;;;;;;54.43;21.53;;;;;;;;;;5051903;28;20272;-74
2020/12/13 08:56:14;;;;;;;57.67;21.23;;;;;;;;;;5054048;28;20591;-74
2020/12/13 08:59:24;;;;;;;54.23;22.10;;;;;;;;;;5047968;28;20734;-74
2020/12/13 09:02:35;;;;;;;54.43;20.90;;;;;;;;;;5048377;28;20305;-74
2020/12/13 09:05:53;;;;;;;54.63;21.00;;;;;;;;;;5055204;28;20203;-75
2020/12/13 09:09:09;;;;;;;50.03;20.60;;;;;;;;;;5049396;28;20284;-75
2020/12/13 09:12:28;;;;;;;50.13;20.20;;;;;;;;;;5058630;28;20195;-74
2020/12/13 09:15:39;;;;;;;52.10;20.90;;;;;;;;;;5060615;28;20360;-74
2020/12/13 09:18:50;;;;;;;56.10;21.53;;;;;;;;;;5048896;28;20215;-74
2020/12/13 09:22:03;;;;;;;47.93;19.83;;;;;;;;;;5049022;28;20238;-75
2020/12/13 09:25:15;;;;;;;51.80;21.33;;;;;;;;;;5050603;28;20216;-75
2020/12/13 09:28:26;;;;;;;49.70;19.37;;;;;;;;;;5049675;28;20219;-75
2020/12/13 09:31:37;;;;;;;50.33;19.00;;;;;;;;;;5050183;28;20207;-74
2020/12/13 09:34:49;;;;;;;50.67;19.93;;;;;;;;;;5052661;28;20720;-74
2020/12/13 09:38:01;;;;;;;44.60;17.63;;;;;;;;;;5048723;28;20299;-74
2020/12/13 09:41:18;;;;;;;45.57;19.53;;;;;;;;;;5052335;28;20194;-74
2020/12/13 09:44:28;;;;;;;51.00;19.53;;;;;;;;;;5052058;28;20268;-74
2020/12/13 09:47:39;;;;;;;57.10;20.50;;;;;;;;;;5061015;28;20218;-74
2020/12/13 09:50:50;;;;;;;49.80;18.80;;;;;;;;;;5073045;28;20174;-74
2020/12/13 09:54:01;;;;;;;54.03;19.70;;;;;;;;;;5072487;28;20307;-74
2020/12/13 09:57:13;;;;;;;49.57;17.80;;;;;;;;;;5034171;28;20220;-75
2020/12/13 10:00:24;;;;;;;44.43;17.93;;;;;;;;;;5047753;28;20203;-76
2020/12/13 10:03:35;;;;;;;46.87;18.10;;;;;;;;;;5050644;28;20741;-75
2020/12/13 10:07:13;;;;;;;38.50;16.50;;;;;;;;;;5051639;28;20214;-75
2020/12/13 10:10:24;;;;;;;46.53;16.70;;;;;;;;;;5049900;28;20296;-75
2020/12/13 10:13:36;;;;;;;43.27;17.37;;;;;;;;;;5051766;28;20215;-77
2020/12/13 10:16:47;;;;;;;40.73;17.03;;;;;;;;;;5059440;28;20199;-76
2020/12/13 10:19:58;;;;;;;41.93;17.17;;;;;;;;;;5051273;28;20234;-76
2020/12/13 10:23:09;;;;;;;45.47;18.17;;;;;;;;;;5048259;28;20730;-75
2020/12/13 10:26:23;;;;;;;44.70;17.60;;;;;;;;;;5049994;28;20244;-76
2020/12/13 10:29:35;;;;;;;47.77;19.60;;;;;;;;;;5047952;28;20246;-76
2020/12/13 10:32:46;;;;;;;47.00;18.80;;;;;;;;;;5048233;28;20203;-75
2020/12/13 10:35:57;;;;;;;42.60;18.23;;;;;;;;;;5051593;28;20281;-76
2020/12/13 10:39:10;;;;;;;40.63;17.80;;;;;;;;;;5054039;28;20231;-75
2020/12/13 10:42:21;;;;;;;41.17;17.50;;;;;;;;;;5055738;28;20733;-75
2020/12/13 10:45:33;;;;;;;41.10;16.10;;;;;;;;;;5057443;28;20670;-76
2020/12/13 10:48:45;;;;;;;45.17;17.17;;;;;;;;;;5054151;28;20218;-75
2020/12/13 10:51:56;;;;;;;45.30;17.87;;;;;;;;;;5057328;28;20206;-75
2020/12/13 10:55:07;;;;;;;44.57;17.80;;;;;;;;;;5054779;28;20215;-75
2020/12/13 10:58:18;;;;;;;40.10;16.33;;;;;;;;;;5051684;28;20257;-75
2020/12/13 11:01:30;;;;;;;41.40;17.07;;;;;;;;;;5052830;28;20606;-75
2020/12/13 11:04:41;;;;;;;39.90;15.93;;;;;;;;;;5045992;28;20276;-73
2020/12/13 11:07:52;;;;;;;42.20;16.53;;;;;;;;;;5053235;28;20222;-76
2020/12/13 11:11:03;;;;;;;45.23;17.80;;;;;;;;;;5059391;28;20336;-76
2020/12/13 11:14:14;;;;;;;45.37;17.03;;;;;;;;;;5052103;28;20277;-75
2020/12/13 11:17:26;;;;;;;41.40;17.57;;;;;;;;;;5052540;28;20223;-75
2020/12/13 11:20:37;;;;;;;42.73;16.53;;;;;;;;;;5053698;28;20238;-75
2020/12/13 11:23:48;;;;;;;39.97;16.97;;;;;;;;;;5052073;28;20245;-76
2020/12/13 11:26:59;;;;;;;41.97;17.00;;;;;;;;;;5055610;28;20203;-75
2020/12/13 11:30:10;;;;;;;44.27;17.20;;;;;;;;;;5060091;28;20272;-75
2020/12/13 11:33:22;;;;;;;43.53;16.87;;;;;;;;;;5052668;28;20241;-76
2020/12/13 11:36:34;;;;;;;42.30;17.07;;;;;;;;;;5050569;28;20646;-77
2020/12/13 11:39:52;;;;;;;42.90;17.30;;;;;;;;;;5056212;28;20211;-78
2020/12/13 11:43:07;;;;;;;39.17;16.90;;;;;;;;;;5054115;28;20289;-77
2020/12/13 11:46:21;;;;;;;40.73;17.57;;;;;;;;;;5047272;28;20211;-77
2020/12/13 11:49:33;;;;;;;39.57;16.27;;;;;;;;;;5058616;28;20211;-78
2020/12/13 11:52:44;;;;;;;41.63;17.90;;;;;;;;;;5054140;28;20226;-78
2020/12/13 11:55:57;;;;;;;42.87;16.63;;;;;;;;;;5048095;28;20310;-77
2020/12/13 11:59:08;;;;;;;41.63;15.83;;;;;;;;;;5035161;28;20188;-78
2020/12/13 12:02:19;;;;;;;40.33;16.03;;;;;;;;;;5033486;28;20227;-78
2020/12/13 12:05:31;;;;;;;39.83;15.63;;;;;;;;;;5046955;28;20223;-78
2020/12/13 12:08:45;;;;;;;43.47;17.97;;;;;;;;;;5052036;28;20204;-77
2020/12/13 12:11:56;;;;;;;40.10;16.13;;;;;;;;;;5054554;28;20206;-77
2020/12/13 12:15:08;;;;;;;44.97;16.97;;;;;;;;;;5054419;28;20234;-77
2020/12/13 12:18:20;;;;;;;42.50;16.13;;;;;;;;;;5049743;28;20214;-78
2020/12/13 12:21:34;;;;;;;44.90;16.47;;;;;;;;;;5052038;28;20207;-78
2020/12/13 12:24:45;;;;;;;54.17;19.50;;;;;;;;;;5051850;28;20330;-77
2020/12/13 12:27:56;;;;;;;45.97;16.03;;;;;;;;;;5052894;28;20204;-77
2020/12/13 12:31:07;;;;;;;39.37;16.17;;;;;;;;;;5050332;28;20294;-77
2020/12/13 12:34:18;;;;;;;47.60;17.00;;;;;;;;;;5055616;28;20231;-77
2020/12/13 12:37:30;;;;;;;45.07;17.67;;;;;;;;;;5052829;28;20322;-77
2020/12/13 12:40:41;;;;;;;45.67;17.67;;;;;;;;;;5053102;28;20660;-77
2020/12/13 12:43:53;;;;;;;47.10;17.10;;;;;;;;;;5053392;28;20317;-77
2020/12/13 12:47:04;;;;;;;39.77;16.27;;;;;;;;;;5050016;28;20215;-77
2020/12/13 12:50:15;;;;;;;43.70;17.00;;;;;;;;;;5055116;28;20242;-77
2020/12/13 12:53:27;;;;;;;44.07;16.10;;;;;;;;;;5051854;28;20230;-77
2020/12/13 12:56:42;;;;;;;43.70;16.50;;;;;;;;;;5050381;28;20207;-77
2020/12/13 13:00:16;;;;;;;58.20;21.53;;;;;;;;;;5051581;28;20211;-76
2020/12/13 13:03:30;;;;;;;63.83;24.23;;;;;;;;;;5046349;28;20258;-76
2020/12/13 13:06:58;;;;;;;67.17;23.93;;;;;;;;;;5040926;28;20195;-77
2020/12/13 13:10:13;;;;;;;61.57;23.00;;;;;;;;;;5050171;28;20257;-77
2020/12/13 13:13:29;;;;;;;54.00;19.63;;;;;;;;;;5054694;28;20215;-76
2020/12/13 13:16:45;;;;;;;49.93;17.87;;;;;;;;;;5048189;28;20647;-78
2020/12/13 13:19:58;;;;;;;55.90;20.77;;;;;;;;;;5052215;28;20218;-77
2020/12/13 13:23:10;;;;;;;52.13;18.87;;;;;;;;;;5048707;28;20317;-78
2020/12/13 13:30:58;;;;;;;58.20;21.30;;;;;;;;;;5075199;28;20651;-74
2020/12/13 13:34:09;;;;;;;52.83;18.87;;;;;;;;;;5061640;28;20226;-76
2020/12/13 13:37:20;;;;;;;46.20;17.90;;;;;;;;;;5057899;28;20211;-74
2020/12/13 13:40:31;;;;;;;64.37;25.70;;;;;;;;;;5053200;28;20237;-74
2020/12/13 13:43:45;;;;;;;54.93;20.13;;;;;;;;;;5051221;28;20262;-74
2020/12/13 13:47:02;;;;;;;56.70;20.30;;;;;;;;;;5050463;28;20241;-74
2020/12/13 13:50:13;;;;;;;68.27;24.00;;;;;;;;;;5041635;28;20219;-76
2020/12/13 13:53:24;;;;;;;63.23;23.23;;;;;;;;;;5044655;28;20238;-75
2020/12/13 13:56:41;;;;;;;55.97;22.13;;;;;;;;;;5045503;28;20214;-74
2020/12/13 13:59:55;;;;;;;79.47;27.80;;;;;;;;;;5051651;28;20291;-74
2020/12/13 14:03:07;;;;;;;62.27;21.83;;;;;;;;;;5041702;28;20784;-75
2020/12/13 14:06:23;;;;;;;48.43;17.60;;;;;;;;;;5048869;28;20211;-74
2020/12/13 14:09:34;;;;;;;54.87;18.20;;;;;;;;;;5049894;28;20247;-74
2020/12/13 14:12:45;;;;;;;56.23;20.50;;;;;;;;;;5047542;28;20199;-74
2020/12/13 14:15:56;;;;;;;56.17;20.93;;;;;;;;;;5054287;28;20199;-75
2020/12/13 14:19:08;;;;;;;60.33;22.57;;;;;;;;;;5054758;28;20257;-74
2020/12/13 14:22:20;;;;;;;53.97;20.40;;;;;;;;;;5062306;28;20214;-74
2020/12/13 14:25:31;;;;;;;48.83;18.63;;;;;;;;;;5054665;28;20280;-74
2020/12/13 14:28:43;;;;;;;55.63;19.40;;;;;;;;;;5049107;28;20269;-73
2020/12/13 14:31:53;;;;;;;52.13;18.83;;;;;;;;;;5052690;28;20826;-74
2020/12/13 14:35:07;;;;;;;46.30;18.17;;;;;;;;;;5051729;28;20237;-73
2020/12/13 14:38:18;;;;;;;43.83;16.47;;;;;;;;;;5054209;28;20211;-73
2020/12/13 14:41:29;;;;;;;46.43;18.20;;;;;;;;;;5054222;28;20187;-73
2020/12/13 14:44:41;;;;;;;39.47;15.53;;;;;;;;;;5048177;28;20268;-73
2020/12/13 14:47:51;;;;;;;45.80;17.70;;;;;;;;;;5053999;28;20583;-72
2020/12/13 14:51:03;;;;;;;50.23;18.87;;;;;;;;;;5050547;28;20237;-73
2020/12/13 14:54:14;;;;;;;44.97;17.43;;;;;;;;;;5054198;28;20227;-73
2020/12/13 14:57:26;;;;;;;43.33;17.77;;;;;;;;;;5058964;28;20394;-73
2020/12/13 15:00:37;;;;;;;44.27;16.80;;;;;;;;;;5046123;28;20249;-74
2020/12/13 15:03:49;;;;;;;43.10;18.87;;;;;;;;;;5053049;28;20277;-75
2020/12/13 15:07:03;;;;;;;52.80;19.17;;;;;;;;;;5054495;28;20327;-75
2020/12/13 15:10:14;;;;;;;45.60;17.60;;;;;;;;;;5053911;28;20222;-74
2020/12/13 15:13:32;;;;;;;50.17;19.77;;;;;;;;;;5051962;28;20227;-74
2020/12/13 15:20:11;;;;;;;50.20;18.13;;;;;;;;;;5054510;28;20211;-75
2020/12/13 15:23:23;;;;;;;42.60;16.23;;;;;;;;;;5074004;28;20214;-75
2020/12/13 15:26:36;;;;;;;43.73;17.83;;;;;;;;;;5076390;28;20183;-75
2020/12/13 15:29:48;;;;;;;52.13;18.93;;;;;;;;;;5067406;28;20234;-75
2020/12/13 15:32:59;;;;;;;49.87;18.37;;;;;;;;;;5058810;28;20706;-75
2020/12/13 15:36:13;;;;;;;49.57;18.43;;;;;;;;;;5061020;28;20754;-73
2020/12/13 15:39:25;;;;;;;44.43;16.77;;;;;;;;;;5062806;28;20202;-74
2020/12/13 15:42:47;;;;;;;44.17;16.70;;;;;;;;;;5061701;28;20215;-74
2020/12/13 15:46:13;;;;;;;44.63;15.57;;;;;;;;;;5051855;28;20211;-74
2020/12/13 15:49:47;;;;;;;46.73;17.07;;;;;;;;;;5040518;28;20255;-75
2020/12/13 15:53:09;;;;;;;45.57;15.87;;;;;;;;;;5054580;28;20230;-76
2020/12/13 15:56:37;;;;;;;52.20;17.43;;;;;;;;;;5056342;28;20215;-75
2020/12/13 16:03:42;;;;;;;49.33;19.00;;;;;;;;;;5051645;28;20235;-75
2020/12/13 16:11:02;;;;;;;44.90;17.37;;;;;;;;;;5052560;28;20670;-76
2020/12/13 16:14:36;;;;;;;43.73;17.17;;;;;;;;;;5045421;28;20265;-76
2020/12/13 16:18:03;;;;;;;36.83;14.40;;;;;;;;;;5051604;28;20273;-77
2020/12/13 16:21:41;;;;;;;47.60;16.70;;;;;;;;;;5052542;28;20569;-76
2020/12/13 16:25:12;;;;;;;42.80;16.53;;;;;;;;;;5062160;28;20687;-75
2020/12/13 16:32:52;;;;;;;50.57;18.17;;;;;;;;;;5053609;28;20288;-75
2020/12/13 16:36:16;;;;;;;46.73;17.90;;;;;;;;;;5056192;28;20262;-74
2020/12/13 16:46:56;;;;;;;45.37;16.50;;;;;;;;;;5047367;28;20342;-76
2020/12/13 16:57:48;;;;;;;48.33;16.20;;;;;;;;;;5059525;28;20724;-76
2020/12/13 17:08:17;;;;;;;38.33;15.00;;;;;;;;;;5051466;28;20299;-75
2020/12/13 17:11:37;;;;;;;54.97;17.50;;;;;;;;;;5058702;28;20305;-75
2020/12/13 17:14:58;;;;;;;49.03;16.57;;;;;;;;;;5057190;28;20392;-75
2020/12/13 17:18:24;;;;;;;44.40;16.80;;;;;;;;;;5055355;28;20212;-75
2020/12/13 17:21:42;;;;;;;45.10;16.80;;;;;;;;;;5040141;28;20628;-76
2020/12/13 17:25:25;;;;;;;43.77;16.27;;;;;;;;;;5041616;28;20288;-75
2020/12/13 17:29:06;;;;;;;47.83;16.57;;;;;;;;;;5043451;28;20619;-74
2020/12/13 17:32:39;;;;;;;39.33;15.90;;;;;;;;;;5054123;28;20203;-75
2020/12/13 17:36:14;;;;;;;39.23;15.43;;;;;;;;;;5054147;28;20641;-75
2020/12/13 17:39:32;;;;;;;42.27;16.00;;;;;;;;;;5051943;28;20226;-76
2020/12/13 17:42:52;;;;;;;38.30;15.63;;;;;;;;;;5047368;28;20757;-75
2020/12/13 17:46:06;;;;;;;45.67;16.77;;;;;;;;;;5049527;28;20207;-75
2020/12/13 17:49:20;;;;;;;50.63;15.80;;;;;;;;;;5046236;28;20203;-76
2020/12/13 17:52:37;;;;;;;47.13;17.87;;;;;;;;;;5044874;28;20250;-76
2020/12/13 17:55:59;;;;;;;40.53;16.10;;;;;;;;;;5050154;28;20260;-75
2020/12/13 17:59:19;;;;;;;40.03;16.43;;;;;;;;;;5053512;28;20223;-76
2020/12/13 18:02:33;;;;;;;41.80;17.93;;;;;;;;;;5046842;28;20265;-75
2020/12/13 18:05:46;;;;;;;48.57;16.03;;;;;;;;;;5050144;28;20208;-75
2020/12/13 18:08:57;;;;;;;40.57;14.93;;;;;;;;;;5050803;28;20234;-76
2020/12/13 18:12:09;;;;;;;44.60;16.73;;;;;;;;;;5047957;28;20352;-76
2020/12/13 18:15:20;;;;;;;61.57;21.33;;;;;;;;;;5039208;28;20692;-75
2020/12/13 18:18:31;;;;;;;52.97;20.30;;;;;;;;;;5047055;28;20231;-77
2020/12/13 18:21:47;;;;;;;43.27;16.73;;;;;;;;;;5049761;28;20330;-76
2020/12/13 18:24:57;;;;;;;47.63;16.53;;;;;;;;;;5054270;28;20597;-76
2020/12/13 18:28:09;;;;;;;40.53;16.07;;;;;;;;;;5053271;28;20229;-77
2020/12/13 18:31:20;;;;;;;42.70;16.40;;;;;;;;;;5052476;28;20199;-76
2020/12/13 18:34:31;;;;;;;40.70;15.63;;;;;;;;;;5052471;28;20222;-74
2020/12/13 18:37:43;;;;;;;40.10;16.00;;;;;;;;;;5049970;28;20214;-75
2020/12/13 18:40:55;;;;;;;46.80;19.00;;;;;;;;;;5051286;28;20271;-75
2020/12/13 18:44:06;;;;;;;36.30;15.03;;;;;;;;;;5045543;28;20644;-75
2020/12/13 18:47:17;;;;;;;42.83;16.77;;;;;;;;;;5045763;28;20234;-75
2020/12/13 18:50:28;;;;;;;53.33;19.93;;;;;;;;;;5047330;28;20624;-75
2020/12/13 18:53:40;;;;;;;44.03;16.97;;;;;;;;;;5051879;28;20797;-76
2020/12/13 18:56:51;;;;;;;43.23;17.77;;;;;;;;;;5048164;28;20264;-75
2020/12/13 19:00:03;;;;;;;49.40;19.30;;;;;;;;;;5049346;28;20211;-76
2020/12/13 19:06:45;;;;;;;41.30;15.43;;;;;;;;;;5050923;28;20226;-76
2020/12/13 19:09:59;;;;;;;37.70;15.10;;;;;;;;;;5055762;28;20295;-75
2020/12/13 19:13:10;;;;;;;38.03;15.17;;;;;;;;;;5053245;28;20227;-76
2020/12/13 19:16:21;;;;;;;41.60;15.13;;;;;;;;;;5055443;28;20712;-76
2020/12/13 19:19:32;;;;;;;47.60;17.70;;;;;;;;;;5055342;28;20222;-75
2020/12/13 19:22:43;;;;;;;37.93;15.50;;;;;;;;;;5055440;28;20765;-76
2020/12/13 19:25:56;;;;;;;40.77;15.73;;;;;;;;;;5053879;28;20346;-75
2020/12/13 19:29:07;;;;;;;36.33;14.67;;;;;;;;;;5052367;28;20354;-76
2020/12/13 19:32:18;;;;;;;40.93;15.67;;;;;;;;;;5056171;28;21257;-77
2020/12/13 19:35:29;;;;;;;37.27;15.30;;;;;;;;;;5060110;28;20321;-76
2020/12/13 19:38:41;;;;;;;39.63;15.53;;;;;;;;;;5047200;28;20214;-75